sensor_id;sensor_type;location;lat;lon;timestamp;pressure;altitude;pressure_sealevel;temperature;humidity
71573;BME280;59408;51.032;9.410;2024-02-26T00:01:12;97433.25;;;0.94;100.00
71573;BME280;59408;51.032;9.410;2024-02-26T00:03:38;97427.09;;;0.94;100.00
71573;BME280;59408;51.032;9.410;2024-02-26T00:06:05;97418.25;;;0.93;100.00
71573;BME280;59408;51.032;9.410;2024-02-26T00:08:32;97414.31;;;0.91;100.00
71573;BME280;59408;51.032;9.410;2024-02-26T00:10:58;97421.22;;;0.92;100.00
71573;BME280;59408;51.032;9.410;2024-02-26T00:13:24;97425.38;;;0.98;100.00
71573;BME280;59408;51.032;9.410;2024-02-26T00:15:51;97420.13;;;1.01;100.00
71573;BME280;59408;51.032;9.410;2024-02-26T00:18:19;97428.97;;;1.02;100.00
71573;BME280;59408;51.032;9.410;2024-02-26T00:20:45;97423.47;;;1.07;100.00
71573;BME280;59408;51.032;9.410;2024-02-26T00:23:14;97421.88;;;1.14;100.00
71573;BME280;59408;51.032;9.410;2024-02-26T00:25:41;97418.09;;;1.24;100.00
71573;BME280;59408;51.032;9.410;2024-02-26T00:28:07;97417.13;;;1.29;100.00
71573;BME280;59408;51.032;9.410;2024-02-26T00:30:33;97411.13;;;1.32;100.00
71573;BME280;59408;51.032;9.410;2024-02-26T00:33:00;97411.13;;;1.32;100.00
71573;BME280;59408;51.032;9.410;2024-02-26T00:35:28;97410.31;;;1.31;100.00
71573;BME280;59408;51.032;9.410;2024-02-26T00:37:54;97412.69;;;1.33;100.00
71573;BME280;59408;51.032;9.410;2024-02-26T00:40:21;97413.31;;;1.38;100.00
71573;BME280;59408;51.032;9.410;2024-02-26T00:42:47;97409.84;;;1.38;100.00
71573;BME280;59408;51.032;9.410;2024-02-26T00:45:13;97412.53;;;1.38;100.00
71573;BME280;59408;51.032;9.410;2024-02-26T00:47:40;97410.97;;;1.37;100.00
71573;BME280;59408;51.032;9.410;2024-02-26T00:50:07;97411.09;;;1.40;100.00
71573;BME280;59408;51.032;9.410;2024-02-26T00:52:35;97412.06;;;1.44;100.00
71573;BME280;59408;51.032;9.410;2024-02-26T00:55:02;97421.22;;;1.52;100.00
71573;BME280;59408;51.032;9.410;2024-02-26T00:57:28;97414.41;;;1.54;100.00
71573;BME280;59408;51.032;9.410;2024-02-26T00:59:55;97406.78;;;1.56;100.00
71573;BME280;59408;51.032;9.410;2024-02-26T01:02:21;97402.38;;;1.60;100.00
71573;BME280;59408;51.032;9.410;2024-02-26T01:04:48;97405.19;;;1.64;100.00
71573;BME280;59408;51.032;9.410;2024-02-26T01:07:14;97404.09;;;1.65;100.00
71573;BME280;59408;51.032;9.410;2024-02-26T01:09:43;97394.13;;;1.66;100.00
71573;BME280;59408;51.032;9.410;2024-02-26T01:12:09;97402.16;;;1.74;100.00
71573;BME280;59408;51.032;9.410;2024-02-26T01:14:35;97401.22;;;1.79;100.00
71573;BME280;59408;51.032;9.410;2024-02-26T01:17:02;97401.53;;;1.77;100.00
71573;BME280;59408;51.032;9.410;2024-02-26T01:19:29;97407.53;;;1.74;100.00
71573;BME280;59408;51.032;9.410;2024-02-26T01:21:55;97402.03;;;1.71;100.00
71573;BME280;59408;51.032;9.410;2024-02-26T01:24:22;97404.44;;;1.63;100.00
71573;BME280;59408;51.032;9.410;2024-02-26T01:26:50;97412.16;;;1.65;100.00
71573;BME280;59408;51.032;9.410;2024-02-26T01:29:16;97402.66;;;1.68;100.00
71573;BME280;59408;51.032;9.410;2024-02-26T01:31:43;97397.47;;;1.62;100.00
71573;BME280;59408;51.032;9.410;2024-02-26T01:34:09;97393.06;;;1.58;100.00
71573;BME280;59408;51.032;9.410;2024-02-26T01:36:36;97392.91;;;1.54;100.00
71573;BME280;59408;51.032;9.410;2024-02-26T01:39:02;97399.09;;;1.55;100.00
71573;BME280;59408;51.032;9.410;2024-02-26T01:41:29;97403.66;;;1.54;100.00
71573;BME280;59408;51.032;9.410;2024-02-26T01:43:56;97400.16;;;1.62;100.00
71573;BME280;59408;51.032;9.410;2024-02-26T01:46:23;97396.38;;;1.63;100.00
71573;BME280;59408;51.032;9.410;2024-02-26T01:48:50;97396.03;;;1.65;100.00
71573;BME280;59408;51.032;9.410;2024-02-26T01:51:17;97405.66;;;1.66;100.00
71573;BME280;59408;51.032;9.410;2024-02-26T01:53:43;97397.91;;;1.64;100.00
71573;BME280;59408;51.032;9.410;2024-02-26T01:56:11;97397.75;;;1.70;100.00
71573;BME280;59408;51.032;9.410;2024-02-26T01:58:38;97396.19;;;1.69;100.00
71573;BME280;59408;51.032;9.410;2024-02-26T02:01:06;97395.41;;;1.68;100.00
71573;BME280;59408;51.032;9.410;2024-02-26T02:03:32;97393.66;;;1.72;100.00
71573;BME280;59408;51.032;9.410;2024-02-26T02:06:00;97389.06;;;1.73;100.00
71573;BME280;59408;51.032;9.410;2024-02-26T02:08:27;97389.50;;;1.75;100.00
71573;BME280;59408;51.032;9.410;2024-02-26T02:10:53;97388.41;;;1.76;100.00
71573;BME280;59408;51.032;9.410;2024-02-26T02:13:20;97386.50;;;1.76;100.00
71573;BME280;59408;51.032;9.410;2024-02-26T02:15:46;97389.03;;;1.81;100.00
71573;BME280;59408;51.032;9.410;2024-02-26T02:18:14;97386.00;;;1.83;100.00
71573;BME280;59408;51.032;9.410;2024-02-26T02:20:42;97377.31;;;1.86;100.00
71573;BME280;59408;51.032;9.410;2024-02-26T02:23:09;97381.72;;;1.90;100.00
71573;BME280;59408;51.032;9.410;2024-02-26T02:25:35;97384.06;;;1.92;100.00
71573;BME280;59408;51.032;9.410;2024-02-26T02:28:02;97384.53;;;1.94;100.00
71573;BME280;59408;51.032;9.410;2024-02-26T02:30:30;97385.81;;;1.96;100.00
71573;BME280;59408;51.032;9.410;2024-02-26T02:32:57;97390.88;;;1.98;100.00
71573;BME280;59408;51.032;9.410;2024-02-26T02:35:24;97386.28;;;1.98;100.00
71573;BME280;59408;51.032;9.410;2024-02-26T02:37:52;97384.81;;;2.01;100.00
71573;BME280;59408;51.032;9.410;2024-02-26T02:40:19;97371.06;;;2.03;100.00
71573;BME280;59408;51.032;9.410;2024-02-26T02:42:45;97380.38;;;2.05;100.00
71573;BME280;59408;51.032;9.410;2024-02-26T02:45:12;97382.75;;;2.07;100.00
71573;BME280;59408;51.032;9.410;2024-02-26T02:47:38;97381.19;;;2.06;100.00
71573;BME280;59408;51.032;9.410;2024-02-26T02:50:06;97386.25;;;2.07;100.00
71573;BME280;59408;51.032;9.410;2024-02-26T02:52:32;97373.25;;;2.09;100.00
71573;BME280;59408;51.032;9.410;2024-02-26T02:55:00;97365.97;;;2.10;100.00
71573;BME280;59408;51.032;9.410;2024-02-26T02:57:27;97372.28;;;2.14;100.00
71573;BME280;59408;51.032;9.410;2024-02-26T02:59:53;97367.84;;;2.18;100.00
71573;BME280;59408;51.032;9.410;2024-02-26T03:02:20;97367.06;;;2.17;100.00
71573;BME280;59408;51.032;9.410;2024-02-26T03:04:46;97367.97;;;2.21;100.00
71573;BME280;59408;51.032;9.410;2024-02-26T03:07:13;97367.97;;;2.21;100.00
71573;BME280;59408;51.032;9.410;2024-02-26T03:09:39;97365.75;;;2.23;100.00
71573;BME280;59408;51.032;9.410;2024-02-26T03:12:07;97365.75;;;2.23;100.00
71573;BME280;59408;51.032;9.410;2024-02-26T03:14:34;97367.97;;;2.21;100.00
71573;BME280;59408;51.032;9.410;2024-02-26T03:17:00;97362.09;;;2.19;100.00
71573;BME280;59408;51.032;9.410;2024-02-26T03:19:26;97366.84;;;2.22;100.00
71573;BME280;59408;51.032;9.410;2024-02-26T03:21:53;97363.84;;;2.24;100.00
71573;BME280;59408;51.032;9.410;2024-02-26T03:24:19;97372.69;;;2.24;100.00
71573;BME280;59408;51.032;9.410;2024-02-26T03:26:46;97371.91;;;2.24;99.56
71573;BME280;59408;51.032;9.410;2024-02-26T03:29:14;97382.34;;;2.25;98.85
71573;BME280;59408;51.032;9.410;2024-02-26T03:31:40;97389.75;;;2.28;99.18
71573;BME280;59408;51.032;9.410;2024-02-26T03:34:07;97380.13;;;2.27;98.73
71573;BME280;59408;51.032;9.410;2024-02-26T03:36:34;97386.63;;;2.26;99.67
71573;BME280;59408;51.032;9.410;2024-02-26T03:39:00;97392.63;;;2.23;98.95
71573;BME280;59408;51.032;9.410;2024-02-26T03:41:27;97385.69;;;2.22;99.82
71573;BME280;59408;51.032;9.410;2024-02-26T03:43:53;97393.28;;;2.20;99.84
71573;BME280;59408;51.032;9.410;2024-02-26T03:46:21;97396.94;;;2.16;99.83
71573;BME280;59408;51.032;9.410;2024-02-26T03:48:47;97399.97;;;2.14;99.68
71573;BME280;59408;51.032;9.410;2024-02-26T03:51:14;97410.44;;;2.07;100.00
71573;BME280;59408;51.032;9.410;2024-02-26T03:53:40;97408.06;;;2.06;100.00
71573;BME280;59408;51.032;9.410;2024-02-26T03:56:07;97413.59;;;2.09;98.75
71573;BME280;59408;51.032;9.410;2024-02-26T03:58:34;97413.25;;;2.11;99.56
71573;BME280;59408;51.032;9.410;2024-02-26T04:01:00;97419.31;;;2.08;100.00
71573;BME280;59408;51.032;9.410;2024-02-26T04:03:28;97405.22;;;2.02;100.00
71573;BME280;59408;51.032;9.410;2024-02-26T04:05:55;97407.59;;;2.04;100.00
71573;BME280;59408;51.032;9.410;2024-02-26T04:08:21;97407.91;;;2.02;100.00
71573;BME280;59408;51.032;9.410;2024-02-26T04:10:48;97408.69;;;2.03;100.00
71573;BME280;59408;51.032;9.410;2024-02-26T04:13:14;97411.72;;;2.01;100.00
71573;BME280;59408;51.032;9.410;2024-02-26T04:15:41;97404.59;;;2.05;100.00
71573;BME280;59408;51.032;9.410;2024-02-26T04:18:07;97411.41;;;2.03;100.00
71573;BME280;59408;51.032;9.410;2024-02-26T04:20:36;97409.03;;;2.01;100.00
71573;BME280;59408;51.032;9.410;2024-02-26T04:23:02;97411.72;;;2.01;100.00
71573;BME280;59408;51.032;9.410;2024-02-26T04:25:29;97404.00;;;1.99;100.00
71573;BME280;59408;51.032;9.410;2024-02-26T04:27:55;97398.13;;;1.97;100.00
71573;BME280;59408;51.032;9.410;2024-02-26T04:30:22;97406.69;;;1.99;100.00
71573;BME280;59408;51.032;9.410;2024-02-26T04:32:49;97387.97;;;2.03;100.00
71573;BME280;59408;51.032;9.410;2024-02-26T04:35:15;97386.72;;;2.09;100.00
71573;BME280;59408;51.032;9.410;2024-02-26T04:37:43;97391.09;;;2.14;100.00
71573;BME280;59408;51.032;9.410;2024-02-26T04:40:10;97392.47;;;2.20;100.00
71573;BME280;59408;51.032;9.410;2024-02-26T04:42:37;97394.06;;;2.21;100.00
71573;BME280;59408;51.032;9.410;2024-02-26T04:45:04;97393.75;;;2.22;100.00
71573;BME280;59408;51.032;9.410;2024-02-26T04:47:30;97389.63;;;2.25;100.00
71573;BME280;59408;51.032;9.410;2024-02-26T04:49:57;97391.53;;;2.24;100.00
71573;BME280;59408;51.032;9.410;2024-02-26T04:52:23;97400.19;;;2.30;99.61
71573;BME280;59408;51.032;9.410;2024-02-26T04:54:51;97400.50;;;2.28;100.00
71573;BME280;59408;51.032;9.410;2024-02-26T04:57:18;97399.09;;;2.31;99.79
71573;BME280;59408;51.032;9.410;2024-02-26T04:59:44;97403.03;;;2.33;99.28
71573;BME280;59408;51.032;9.410;2024-02-26T05:02:11;97397.34;;;2.35;99.36
71573;BME280;59408;51.032;9.410;2024-02-26T05:04:37;97401.25;;;2.37;98.99
71573;BME280;59408;51.032;9.410;2024-02-26T05:07:04;97403.03;;;2.33;99.36
71573;BME280;59408;51.032;9.410;2024-02-26T05:09:31;97407.63;;;2.33;99.30
71573;BME280;59408;51.032;9.410;2024-02-26T05:11:59;97413.63;;;2.30;100.00
71573;BME280;59408;51.032;9.410;2024-02-26T05:14:26;97408.94;;;2.27;100.00
71573;BME280;59408;51.032;9.410;2024-02-26T05:16:52;97413.16;;;2.28;100.00
71573;BME280;59408;51.032;9.410;2024-02-26T05:19:18;97405.88;;;2.28;100.00
71573;BME280;59408;51.032;9.410;2024-02-26T05:21:45;97396.28;;;2.27;100.00
71573;BME280;59408;51.032;9.410;2024-02-26T05:24:12;97404.34;;;2.27;99.55
71573;BME280;59408;51.032;9.410;2024-02-26T05:26:38;97400.97;;;2.30;99.75
71573;BME280;59408;51.032;9.410;2024-02-26T05:29:06;97397.50;;;2.30;99.58
71573;BME280;59408;51.032;9.410;2024-02-26T05:31:32;97408.56;;;2.28;99.90
71573;BME280;59408;51.032;9.410;2024-02-26T05:33:59;97402.88;;;2.30;100.00
71573;BME280;59408;51.032;9.410;2024-02-26T05:36:26;97407.16;;;2.31;99.81
71573;BME280;59408;51.032;9.410;2024-02-26T05:38:52;97411.09;;;2.33;100.00
71573;BME280;59408;51.032;9.410;2024-02-26T05:41:19;97409.31;;;2.37;99.13
71573;BME280;59408;51.032;9.410;2024-02-26T05:43:45;97408.41;;;2.33;99.38
71573;BME280;59408;51.032;9.410;2024-02-26T05:46:16;97408.72;;;2.32;100.00
71573;BME280;59408;51.032;9.410;2024-02-26T05:48:42;97399.88;;;2.31;100.00
71573;BME280;59408;51.032;9.410;2024-02-26T05:51:09;97407.03;;;2.27;100.00
71573;BME280;59408;51.032;9.410;2024-02-26T05:53:35;97413.00;;;2.33;100.00
71573;BME280;59408;51.032;9.410;2024-02-26T05:56:02;97402.25;;;2.33;100.00
71573;BME280;59408;51.032;9.410;2024-02-26T05:58:29;97404.13;;;2.32;100.00
71573;BME280;59408;51.032;9.410;2024-02-26T06:00:55;97401.78;;;2.31;100.00
71573;BME280;59408;51.032;9.410;2024-02-26T06:03:23;97404.00;;;2.29;100.00
71573;BME280;59408;51.032;9.410;2024-02-26T06:05:50;97400.50;;;2.28;100.00
71573;BME280;59408;51.032;9.410;2024-02-26T06:08:16;97414.31;;;2.27;100.00
71573;BME280;59408;51.032;9.410;2024-02-26T06:10:43;97419.34;;;2.28;100.00
71573;BME280;59408;51.032;9.410;2024-02-26T06:13:09;97427.38;;;2.37;100.00
71573;BME280;59408;51.032;9.410;2024-02-26T06:15:36;97437.16;;;2.42;99.90
71573;BME280;59408;51.032;9.410;2024-02-26T06:18:02;97440.66;;;2.42;99.96
71573;BME280;59408;51.032;9.410;2024-02-26T06:20:30;97440.34;;;2.44;99.77
71573;BME280;59408;51.032;9.410;2024-02-26T06:22:57;97451.88;;;2.44;99.68
71573;BME280;59408;51.032;9.410;2024-02-26T06:25:23;97449.19;;;2.44;100.00
71573;BME280;59408;51.032;9.410;2024-02-26T06:27:50;97439.84;;;2.42;100.00
71573;BME280;59408;51.032;9.410;2024-02-26T06:30:16;97453.31;;;2.42;100.00
71573;BME280;59408;51.032;9.410;2024-02-26T06:32:43;97458.69;;;2.42;100.00
71573;BME280;59408;51.032;9.410;2024-02-26T06:35:10;97462.78;;;2.48;100.00
71573;BME280;59408;51.032;9.410;2024-02-26T06:37:37;97461.19;;;2.47;100.00
71573;BME280;59408;51.032;9.410;2024-02-26T06:40:05;97468.47;;;2.46;100.00
71573;BME280;59408;51.032;9.410;2024-02-26T06:42:32;97476.09;;;2.44;100.00
71573;BME280;59408;51.032;9.410;2024-02-26T06:44:59;97484.28;;;2.48;100.00
71573;BME280;59408;51.032;9.410;2024-02-26T06:47:25;97480.97;;;2.51;100.00
71573;BME280;59408;51.032;9.410;2024-02-26T06:49:52;97494.44;;;2.51;100.00
71573;BME280;59408;51.032;9.410;2024-02-26T06:52:18;97497.25;;;2.54;100.00
71573;BME280;59408;51.032;9.410;2024-02-26T06:54:46;97496.75;;;2.61;100.00
71573;BME280;59408;51.032;9.410;2024-02-26T06:57:13;97500.56;;;2.60;100.00
71573;BME280;59408;51.032;9.410;2024-02-26T06:59:40;97503.41;;;2.63;100.00
71573;BME280;59408;51.032;9.410;2024-02-26T07:02:06;97513.50;;;2.66;100.00
71573;BME280;59408;51.032;9.410;2024-02-26T07:04:33;97511.28;;;2.68;100.00
71573;BME280;59408;51.032;9.410;2024-02-26T07:06:59;97516.03;;;2.71;100.00
71573;BME280;59408;51.032;9.410;2024-02-26T07:09:26;97518.84;;;2.75;99.30
71573;BME280;59408;51.032;9.410;2024-02-26T07:11:54;97517.09;;;2.79;100.00
71573;BME280;59408;51.032;9.410;2024-02-26T07:14:22;97521.47;;;2.84;99.44
71573;BME280;59408;51.032;9.410;2024-02-26T07:16:48;97524.00;;;2.89;99.46
71573;BME280;59408;51.032;9.410;2024-02-26T07:19:15;97521.78;;;2.91;100.00
71573;BME280;59408;51.032;9.410;2024-02-26T07:21:42;97530.44;;;2.96;99.15
71573;BME280;59408;51.032;9.410;2024-02-26T07:24:08;97542.16;;;3.00;99.63
71573;BME280;59408;51.032;9.410;2024-02-26T07:26:35;97542.44;;;3.07;100.00
71573;BME280;59408;51.032;9.410;2024-02-26T07:29:03;97540.94;;;3.19;99.11
71573;BME280;59408;51.032;9.410;2024-02-26T07:31:29;97542.31;;;3.25;98.71
71573;BME280;59408;51.032;9.410;2024-02-26T07:33:55;97547.78;;;3.37;98.08
71573;BME280;59408;51.032;9.410;2024-02-26T07:36:22;97551.97;;;3.46;98.71
71573;BME280;59408;51.032;9.410;2024-02-26T07:38:49;97541.16;;;3.55;98.22
71573;BME280;59408;51.032;9.410;2024-02-26T07:41:16;97545.69;;;3.63;98.83
71573;BME280;59408;51.032;9.410;2024-02-26T07:43:42;97527.84;;;3.71;98.21
71573;BME280;59408;51.032;9.410;2024-02-26T07:46:12;97533.34;;;3.74;97.95
71573;BME280;59408;51.032;9.410;2024-02-26T07:48:38;97537.44;;;3.80;98.00
71573;BME280;59408;51.032;9.410;2024-02-26T07:51:05;97537.38;;;3.89;96.35
71573;BME280;59408;51.032;9.410;2024-02-26T07:53:31;97542.88;;;3.93;96.95
71573;BME280;59408;51.032;9.410;2024-02-26T07:55:58;97535.69;;;3.97;95.63
71573;BME280;59408;51.032;9.410;2024-02-26T07:58:25;97538.78;;;4.07;96.12
71573;BME280;59408;51.032;9.410;2024-02-26T08:00:51;97535.66;;;4.17;95.66
71573;BME280;59408;51.032;9.410;2024-02-26T08:03:19;97539.38;;;4.25;94.52
71573;BME280;59408;51.032;9.410;2024-02-26T08:05:46;97535.78;;;4.33;94.83
71573;BME280;59408;51.032;9.410;2024-02-26T08:08:13;97544.47;;;4.39;95.62
71573;BME280;59408;51.032;9.410;2024-02-26T08:10:39;97546.63;;;4.45;94.60
71573;BME280;59408;51.032;9.410;2024-02-26T08:13:05;97545.41;;;4.55;95.80
71573;BME280;59408;51.032;9.410;2024-02-26T08:15:32;97540.56;;;4.60;95.15
71573;BME280;59408;51.032;9.410;2024-02-26T08:17:59;97536.03;;;4.64;93.74
71573;BME280;59408;51.032;9.410;2024-02-26T08:20:26;97542.03;;;4.70;93.89
71573;BME280;59408;51.032;9.410;2024-02-26T08:22:53;97552.19;;;4.73;93.18
71573;BME280;59408;51.032;9.410;2024-02-26T08:25:19;97541.69;;;4.72;92.73
71573;BME280;59408;51.032;9.410;2024-02-26T08:27:46;97541.38;;;4.73;92.59
71573;BME280;59408;51.032;9.410;2024-02-26T08:30:13;97544.97;;;4.77;92.36
71573;BME280;59408;51.032;9.410;2024-02-26T08:32:40;97548.13;;;4.79;93.13
71573;BME280;59408;51.032;9.410;2024-02-26T08:35:06;97543.28;;;4.85;93.27
71573;BME280;59408;51.032;9.410;2024-02-26T08:37:34;97548.91;;;4.92;92.04
71573;BME280;59408;51.032;9.410;2024-02-26T08:40:01;97553.19;;;4.93;91.84
71573;BME280;59408;51.032;9.410;2024-02-26T08:42:31;97551.06;;;4.98;91.51
71573;BME280;59408;51.032;9.410;2024-02-26T08:44:58;97543.97;;;5.06;91.52
71573;BME280;59408;51.032;9.410;2024-02-26T08:47:24;97540.69;;;5.13;90.91
71573;BME280;59408;51.032;9.410;2024-02-26T08:49:51;97540.25;;;5.23;91.12
71573;BME280;59408;51.032;9.410;2024-02-26T08:52:18;97533.69;;;5.36;90.92
71573;BME280;59408;51.032;9.410;2024-02-26T08:54:45;97536.25;;;5.45;89.44
71573;BME280;59408;51.032;9.410;2024-02-26T08:57:12;97538.63;;;5.46;88.81
71573;BME280;59408;51.032;9.410;2024-02-26T08:59:38;97533.50;;;5.57;88.89
71573;BME280;59408;51.032;9.410;2024-02-26T09:02:05;97534.06;;;5.62;88.38
71573;BME280;59408;51.032;9.410;2024-02-26T09:04:31;97540.03;;;5.68;88.36
71573;BME280;59408;51.032;9.410;2024-02-26T09:06:58;97537.28;;;5.80;88.25
71573;BME280;59408;51.032;9.410;2024-02-26T09:09:25;97535.22;;;5.89;87.07
71573;BME280;59408;51.032;9.410;2024-02-26T09:11:52;97541.72;;;6.00;87.51
71573;BME280;59408;51.032;9.410;2024-02-26T09:14:19;97544.59;;;6.07;86.70
71573;BME280;59408;51.032;9.410;2024-02-26T09:16:45;97550.06;;;6.23;86.70
71573;BME280;59408;51.032;9.410;2024-02-26T09:19:12;97546.06;;;6.33;85.46
71573;BME280;59408;51.032;9.410;2024-02-26T09:21:42;97541.06;;;6.35;84.41
71573;BME280;59408;51.032;9.410;2024-02-26T09:24:08;97545.03;;;6.37;84.72
71573;BME280;59408;51.032;9.410;2024-02-26T09:26:35;97548.25;;;6.43;84.87
71573;BME280;59408;51.032;9.410;2024-02-26T09:29:03;97549.09;;;6.47;84.83
71573;BME280;59408;51.032;9.410;2024-02-26T09:31:29;97537.94;;;6.48;84.25
71573;BME280;59408;51.032;9.410;2024-02-26T09:33:56;97544.84;;;6.62;84.25
71573;BME280;59408;51.032;9.410;2024-02-26T09:36:27;97541.88;;;6.67;82.91
71573;BME280;59408;51.032;9.410;2024-02-26T09:38:54;97549.22;;;6.82;83.49
71573;BME280;59408;51.032;9.410;2024-02-26T09:41:28;97563.28;;;7.03;82.90
71573;BME280;59408;51.032;9.410;2024-02-26T09:43:56;97550.22;;;7.24;82.32
71573;BME280;59408;51.032;9.410;2024-02-26T09:46:25;97552.84;;;7.21;80.63
71573;BME280;59408;51.032;9.410;2024-02-26T09:48:52;97561.25;;;7.16;80.93
71573;BME280;59408;51.032;9.410;2024-02-26T09:51:19;97566.16;;;7.10;82.01
71573;BME280;59408;51.032;9.410;2024-02-26T09:53:51;97564.66;;;7.13;80.93
71573;BME280;59408;51.032;9.410;2024-02-26T09:56:18;97575.59;;;7.16;81.36
71573;BME280;59408;51.032;9.410;2024-02-26T09:58:45;97572.47;;;7.14;81.16
71573;BME280;59408;51.032;9.410;2024-02-26T10:01:16;97587.09;;;7.10;81.49
71573;BME280;59408;51.032;9.410;2024-02-26T10:03:49;97591.28;;;7.07;82.84
71573;BME280;59408;51.032;9.410;2024-02-26T10:06:17;97586.00;;;7.14;82.99
71573;BME280;59408;51.032;9.410;2024-02-26T10:08:45;97584.78;;;7.27;82.81
71573;BME280;59408;51.032;9.410;2024-02-26T10:11:13;97586.00;;;7.46;81.70
71573;BME280;59408;51.032;9.410;2024-02-26T10:13:41;97595.09;;;7.53;81.32
71573;BME280;59408;51.032;9.410;2024-02-26T10:16:07;97604.16;;;7.61;79.13
71573;BME280;59408;51.032;9.410;2024-02-26T10:18:48;97605.75;;;7.62;78.70
71573;BME280;59408;51.032;9.410;2024-02-26T10:21:18;97600.16;;;7.74;80.14
71573;BME280;59408;51.032;9.410;2024-02-26T10:23:46;97594.19;;;7.84;79.16
71573;BME280;59408;51.032;9.410;2024-02-26T10:26:14;97595.50;;;7.90;76.01
71573;BME280;59408;51.032;9.410;2024-02-26T10:28:41;97604.84;;;7.93;77.53
71573;BME280;59408;51.032;9.410;2024-02-26T10:31:08;97608.78;;;7.95;77.61
71573;BME280;59408;51.032;9.410;2024-02-26T10:33:36;97606.91;;;7.80;77.70
71573;BME280;59408;51.032;9.410;2024-02-26T10:36:09;97616.69;;;7.85;76.66
71573;BME280;59408;51.032;9.410;2024-02-26T10:38:37;97611.03;;;7.74;77.30
71573;BME280;59408;51.032;9.410;2024-02-26T10:41:03;97622.97;;;7.70;76.99
71573;BME280;59408;51.032;9.410;2024-02-26T10:43:30;97616.53;;;7.78;78.32
71573;BME280;59408;51.032;9.410;2024-02-26T10:45:57;97614.31;;;7.83;78.14
71573;BME280;59408;51.032;9.410;2024-02-26T10:48:25;97617.13;;;7.87;78.19
71573;BME280;59408;51.032;9.410;2024-02-26T10:50:52;97619.59;;;7.92;78.94
71573;BME280;59408;51.032;9.410;2024-02-26T10:53:21;97625.06;;;7.95;78.34
71573;BME280;59408;51.032;9.410;2024-02-26T10:55:49;97624.56;;;7.90;78.48
71573;BME280;59408;51.032;9.410;2024-02-26T10:58:16;97626.94;;;7.91;78.56
71573;BME280;59408;51.032;9.410;2024-02-26T11:00:43;97633.84;;;7.89;77.98
71573;BME280;59408;51.032;9.410;2024-02-26T11:03:11;97643.72;;;7.97;77.32
71573;BME280;59408;51.032;9.410;2024-02-26T11:05:38;97641.44;;;7.99;77.39
71573;BME280;59408;51.032;9.410;2024-02-26T11:08:06;97638.22;;;8.13;76.72
71573;BME280;59408;51.032;9.410;2024-02-26T11:10:35;97633.94;;;8.31;78.38
71573;BME280;59408;51.032;9.410;2024-02-26T11:13:04;97633.09;;;8.46;76.68
71573;BME280;59408;51.032;9.410;2024-02-26T11:15:32;97627.56;;;8.62;76.27
71573;BME280;59408;51.032;9.410;2024-02-26T11:17:59;97627.59;;;8.65;76.29
71573;BME280;59408;51.032;9.410;2024-02-26T11:20:28;97620.44;;;8.76;75.51
71573;BME280;59408;51.032;9.410;2024-02-26T11:22:54;97621.66;;;8.79;74.88
71573;BME280;59408;51.032;9.410;2024-02-26T11:25:21;97632.75;;;8.70;74.66
71573;BME280;59408;51.032;9.410;2024-02-26T11:27:54;97637.56;;;8.58;75.81
71573;BME280;59408;51.032;9.410;2024-02-26T11:30:21;97628.84;;;8.49;75.52
71573;BME280;59408;51.032;9.410;2024-02-26T11:32:48;97635.28;;;8.41;75.82
71573;BME280;59408;51.032;9.410;2024-02-26T11:35:16;97638.31;;;8.35;76.20
71573;BME280;59408;51.032;9.410;2024-02-26T11:37:51;97633.38;;;8.22;75.99
71573;BME280;59408;51.032;9.410;2024-02-26T11:40:18;97626.56;;;8.12;76.37
71573;BME280;59408;51.032;9.410;2024-02-26T11:42:45;97631.22;;;8.12;76.37
71573;BME280;59408;51.032;9.410;2024-02-26T11:48:13;97639.94;;;8.01;77.22
71573;BME280;59408;51.032;9.410;2024-02-26T11:50:40;97629.72;;;7.95;77.80
71573;BME280;59408;51.032;9.410;2024-02-26T11:53:21;97636.38;;;7.97;77.93
71573;BME280;59408;51.032;9.410;2024-02-26T11:55:48;97640.72;;;8.02;79.06
71573;BME280;59408;51.032;9.410;2024-02-26T11:58:35;97640.88;;;8.09;78.27
71573;BME280;59408;51.032;9.410;2024-02-26T12:01:03;97642.47;;;8.10;77.45
71573;BME280;59408;51.032;9.410;2024-02-26T12:03:31;97647.47;;;8.08;78.23
71573;BME280;59408;51.032;9.410;2024-02-26T12:05:58;97647.38;;;8.05;77.61
71573;BME280;59408;51.032;9.410;2024-02-26T12:08:24;97645.34;;;8.01;78.48
71573;BME280;59408;51.032;9.410;2024-02-26T12:10:54;97642.59;;;7.98;78.48
71573;BME280;59408;51.032;9.410;2024-02-26T12:13:29;97648.81;;;7.98;78.58
71573;BME280;59408;51.032;9.410;2024-02-26T12:15:57;97645.72;;;8.00;79.66
71573;BME280;59408;51.032;9.410;2024-02-26T12:18:24;97650.72;;;7.98;79.30
71573;BME280;59408;51.032;9.410;2024-02-26T12:20:59;97648.66;;;8.11;80.36
71573;BME280;59408;51.032;9.410;2024-02-26T12:23:25;97649.88;;;8.13;79.90
71573;BME280;59408;51.032;9.410;2024-02-26T12:25:52;97651.88;;;8.16;78.70
71573;BME280;59408;51.032;9.410;2024-02-26T12:28:18;97657.97;;;8.10;78.44
71573;BME280;59408;51.032;9.410;2024-02-26T12:30:45;97662.44;;;8.02;79.28
71573;BME280;59408;51.032;9.410;2024-02-26T12:33:12;97661.66;;;8.01;79.59
71573;BME280;59408;51.032;9.410;2024-02-26T12:35:39;97667.81;;;7.98;79.88
71573;BME280;59408;51.032;9.410;2024-02-26T12:38:07;97670.66;;;8.06;80.94
71573;BME280;59408;51.032;9.410;2024-02-26T12:40:34;97675.06;;;8.10;81.78
71573;BME280;59408;51.032;9.410;2024-02-26T12:43:00;97670.47;;;8.14;81.70
71573;BME280;59408;51.032;9.410;2024-02-26T12:45:27;97672.34;;;8.10;82.02
71573;BME280;59408;51.032;9.410;2024-02-26T12:47:54;97673.72;;;8.04;80.70
71573;BME280;59408;51.032;9.410;2024-02-26T12:50:20;97680.50;;;7.94;82.70
71573;BME280;59408;51.032;9.410;2024-02-26T12:52:47;97679.31;;;7.92;82.30
71573;BME280;59408;51.032;9.410;2024-02-26T12:55:17;97682.56;;;7.82;84.76
71573;BME280;59408;51.032;9.410;2024-02-26T12:57:45;97685.19;;;7.78;85.68
71573;BME280;59408;51.032;9.410;2024-02-26T13:00:15;97687.03;;;7.74;84.45
71573;BME280;59408;51.032;9.410;2024-02-26T13:02:42;97698.66;;;7.75;85.49
71573;BME280;59408;51.032;9.410;2024-02-26T13:05:11;97695.94;;;7.75;86.33
71573;BME280;59408;51.032;9.410;2024-02-26T13:07:40;97709.91;;;7.73;86.95